createdAt,value
2019-04-14T00:00:32.299Z,38.40
2019-04-14T00:03:19.301Z,37.90
2019-04-14T00:05:47.464Z,37.90
2019-04-14T00:08:13.495Z,37.80
2019-04-14T00:10:40.025Z,37.80
2019-04-14T00:13:06.787Z,38.10
2019-04-14T00:15:39.590Z,38.30
2019-04-14T00:18:01.062Z,38.20
2019-04-14T00:20:27.460Z,39.30
2019-04-14T00:22:53.522Z,38.30
2019-04-14T00:25:19.591Z,38.50
2019-04-14T00:27:45.631Z,38.40
2019-04-14T00:30:11.968Z,38.50
2019-04-14T00:32:48.905Z,38.70
2019-04-14T00:35:19.578Z,39.20
2019-04-14T00:37:53.428Z,38.90
2019-04-14T00:40:27.007Z,39.40
2019-04-14T00:42:58.166Z,39.00
2019-04-14T00:45:38.295Z,39.00
2019-04-14T00:48:05.645Z,39.30
2019-04-14T00:50:27.623Z,39.20
2019-04-14T00:52:54.533Z,39.00
2019-04-14T00:55:20.928Z,38.90
2019-04-14T00:57:48.679Z,39.60
2019-04-14T01:00:18.806Z,39.10
2019-04-14T01:02:45.178Z,39.30
2019-04-14T01:05:15.083Z,39.10
2019-04-14T01:07:43.344Z,39.10
2019-04-14T01:10:12.673Z,39.30
2019-04-14T01:12:38.833Z,39.50
2019-04-14T01:15:11.575Z,39.80
2019-04-14T01:17:48.546Z,39.90
2019-04-14T01:20:17.276Z,41.00
2019-04-14T01:22:46.712Z,40.60
2019-04-14T01:25:15.050Z,41.10
2019-04-14T01:27:41.071Z,40.90
2019-04-14T01:30:11.200Z,40.90
2019-04-14T01:32:41.454Z,41.10
2019-04-14T01:35:09.674Z,41.50
2019-04-14T01:37:39.798Z,41.30
2019-04-14T01:40:07.757Z,41.50
2019-04-14T01:42:35.687Z,41.40
2019-04-14T01:45:03.638Z,41.60
2019-04-14T01:47:35.541Z,41.70
2019-04-14T01:50:02.228Z,41.90
2019-04-14T01:52:30.551Z,42.30
2019-04-14T01:54:58.495Z,42.20
2019-04-14T01:57:33.246Z,42.50
2019-04-14T02:00:01.170Z,42.50
2019-04-14T02:02:29.053Z,42.60
2019-04-14T02:04:55.552Z,42.70
2019-04-14T02:07:21.723Z,42.90
2019-04-14T02:09:48.918Z,43.00
2019-04-14T02:12:15.288Z,43.20
2019-04-14T02:15:02.872Z,43.20
2019-04-14T02:17:28.539Z,43.30
2019-04-14T02:19:54.784Z,43.70
2019-04-14T02:22:20.787Z,43.90
2019-04-14T02:24:48.100Z,43.90
2019-04-14T02:27:14.293Z,44.00
2019-04-14T02:29:40.766Z,44.00
2019-04-14T02:32:36.494Z,44.30
2019-04-14T02:35:02.160Z,44.30
2019-04-14T02:37:26.687Z,44.40
2019-04-14T02:44:53.304Z,45.00
2019-04-14T02:47:45.240Z,45.20
2019-04-14T02:49:51.414Z,45.10
2019-04-14T02:52:19.766Z,45.10
2019-04-14T02:54:53.698Z,45.20
2019-04-14T02:57:17.697Z,45.50
2019-04-14T02:59:45.334Z,45.20
2019-04-14T03:04:38.668Z,44.70
2019-04-14T03:07:08.689Z,44.60
2019-04-14T03:12:07.146Z,44.10
2019-04-14T03:14:35.978Z,44.30
2019-04-14T03:17:14.614Z,44.40
2019-04-14T03:20:02.353Z,44.10
2019-04-14T03:22:31.273Z,44.30
2019-04-14T03:24:41.715Z,44.60
2019-04-14T03:27:30.583Z,44.10
2019-04-14T03:29:58.375Z,44.10
2019-04-14T03:35:15.716Z,43.90
2019-04-14T03:37:44.557Z,44.10
2019-04-14T03:42:22.918Z,44.00
2019-04-14T03:44:49.513Z,44.00
2019-04-14T03:47:19.636Z,44.30
2019-04-14T03:49:45.165Z,45.00
2019-04-14T03:52:02.505Z,44.70
2019-04-14T03:54:36.564Z,44.80
2019-04-14T03:56:46.700Z,44.50
2019-04-14T03:59:13.037Z,44.70
2019-04-14T04:01:39.191Z,45.10
2019-04-14T04:04:05.452Z,44.90
2019-04-14T04:06:31.459Z,45.20
2019-04-14T04:08:57.522Z,45.10
2019-04-14T04:11:24.019Z,45.20
2019-04-14T04:13:50.036Z,44.90
2019-04-14T04:16:18.088Z,45.10
2019-04-14T04:18:54.140Z,45.60
2019-04-14T04:21:29.143Z,45.60
2019-04-14T04:23:57.573Z,45.80
2019-04-14T04:26:25.802Z,45.80
2019-04-14T04:28:54.052Z,45.80
2019-04-14T04:31:24.740Z,45.30
2019-04-14T04:33:52.666Z,45.50
2019-04-14T04:36:20.579Z,45.50
2019-04-14T04:38:49.014Z,46.00
2019-04-14T04:41:15.022Z,46.20
2019-04-14T04:43:41.034Z,45.50
2019-04-14T04:46:07.059Z,45.70
2019-04-14T04:48:33.083Z,46.50
2019-04-14T04:50:59.161Z,46.40
2019-04-14T04:53:26.713Z,46.20
2019-04-14T04:55:52.999Z,46.30
2019-04-14T04:58:19.493Z,46.10
2019-04-14T05:00:48.542Z,45.50
2019-04-14T05:03:14.626Z,45.10
2019-04-14T05:06:02.915Z,44.90
2019-04-14T05:08:29.025Z,44.50
2019-04-14T05:10:59.523Z,44.70
2019-04-14T05:13:27.044Z,44.50
2019-04-14T05:15:55.269Z,44.20
2019-04-14T05:18:22.249Z,44.10
2019-04-14T05:20:48.807Z,44.20
2019-04-14T05:23:14.914Z,44.20
2019-04-14T05:25:40.927Z,44.40
2019-04-14T05:28:07.023Z,44.40
2019-04-14T05:30:33.305Z,45.00
2019-04-14T05:32:59.343Z,44.10
2019-04-14T05:35:27.373Z,44.70
2019-04-14T05:37:53.398Z,44.00
2019-04-14T05:40:19.450Z,43.90
2019-04-14T05:42:47.240Z,44.20
2019-04-14T05:45:13.422Z,44.00
2019-04-14T05:47:39.485Z,44.30
2019-04-14T05:50:07.231Z,43.70
2019-04-14T05:52:33.957Z,43.90
2019-04-14T05:55:00.123Z,43.40
2019-04-14T05:57:26.360Z,43.40
2019-04-14T05:59:52.750Z,43.10
2019-04-14T06:02:20.140Z,42.80
2019-04-14T06:04:46.417Z,43.00
2019-04-14T06:07:12.428Z,42.70
2019-04-14T06:09:38.538Z,42.20
2019-04-14T06:12:04.738Z,42.10
2019-04-14T06:14:31.296Z,41.80
2019-04-14T06:16:57.307Z,41.70
2019-04-14T06:19:23.335Z,41.60
2019-04-14T06:21:49.352Z,41.50
2019-04-14T06:24:15.362Z,41.20
2019-04-14T06:26:41.398Z,41.30
2019-04-14T06:29:07.466Z,42.30
2019-04-14T06:31:35.451Z,41.40
2019-04-14T06:34:03.391Z,41.50
2019-04-14T06:36:40.064Z,41.70
2019-04-14T06:39:14.231Z,41.40
2019-04-14T06:41:40.251Z,41.30
2019-04-14T06:44:06.606Z,41.00
2019-04-14T06:46:32.935Z,40.80
2019-04-14T06:48:58.954Z,40.30
2019-04-14T06:51:24.978Z,40.20
2019-04-14T06:53:51.030Z,40.50
2019-04-14T06:56:17.043Z,39.70
2019-04-14T06:58:43.057Z,39.00
2019-04-14T07:01:10.439Z,39.20
2019-04-14T07:03:36.503Z,38.60
2019-04-14T07:06:02.796Z,38.10
2019-04-14T07:08:30.006Z,38.00
2019-04-14T07:10:56.130Z,38.00
2019-04-14T07:13:22.143Z,38.10
2019-04-14T07:15:48.719Z,38.00
2019-04-14T07:18:14.735Z,37.90
2019-04-14T07:20:40.759Z,37.90
2019-04-14T07:23:08.444Z,37.60
2019-04-14T07:25:34.507Z,37.30
2019-04-14T07:28:00.523Z,36.00
2019-04-14T07:30:31.171Z,35.40
2019-04-14T07:33:15.419Z,35.50
2019-04-14T07:35:49.272Z,35.00
2019-04-14T07:38:17.191Z,35.10
2019-04-14T07:41:00.635Z,34.50
2019-04-14T07:43:45.075Z,34.10
2019-04-14T07:46:28.147Z,33.90
2019-04-14T07:48:58.778Z,33.90
2019-04-14T07:51:38.735Z,33.90
2019-04-14T07:54:06.666Z,34.80
2019-04-14T07:56:34.649Z,34.20
2019-04-14T07:59:02.765Z,34.70
2019-04-14T08:01:39.321Z,35.00
2019-04-14T08:04:13.109Z,34.60
2019-04-14T08:06:47.052Z,35.10
2019-04-14T08:09:17.028Z,34.40
2019-04-14T08:11:43.094Z,34.60
2019-04-14T08:14:09.144Z,33.70
2019-04-14T08:16:36.447Z,33.90
2019-04-14T08:19:02.467Z,33.30
2019-04-14T08:21:28.493Z,32.10
2019-04-14T08:23:54.517Z,32.40
2019-04-14T08:26:20.538Z,33.60
2019-04-14T08:28:46.543Z,33.20
2019-04-14T08:31:12.580Z,32.50
2019-04-14T08:33:38.755Z,32.10
2019-04-14T08:36:04.765Z,32.00
2019-04-14T08:38:30.903Z,31.30
2019-04-14T08:40:56.953Z,30.80
2019-04-14T08:43:31.483Z,30.90
2019-04-14T08:46:05.319Z,30.40
2019-04-14T08:48:45.167Z,30.00
2019-04-14T08:51:13.161Z,29.90
2019-04-14T08:53:43.896Z,29.70
2019-04-14T08:56:28.847Z,29.80
2019-04-14T08:59:13.400Z,30.70
2019-04-14T09:01:58.771Z,31.60
2019-04-14T09:04:41.237Z,31.10
2019-04-14T09:07:15.187Z,31.50
2019-04-14T09:09:48.651Z,31.90
2019-04-14T09:12:19.716Z,31.90
2019-04-14T09:14:57.157Z,31.70
2019-04-14T09:17:20.954Z,32.00
2019-04-14T09:19:46.995Z,31.80
2019-04-14T09:22:21.288Z,31.30
2019-04-14T09:24:54.053Z,31.60
2019-04-14T09:27:22.049Z,31.10
2019-04-14T09:29:48.182Z,30.70
2019-04-14T09:32:16.484Z,29.60
2019-04-14T09:34:57.534Z,29.90
2019-04-14T09:37:25.324Z,29.80
2019-04-14T09:39:51.362Z,29.50
2019-04-14T09:42:19.311Z,29.70
2019-04-14T09:44:53.275Z,30.00
2019-04-14T09:47:27.740Z,30.90
2019-04-14T09:50:05.011Z,32.60
2019-04-14T09:52:36.393Z,33.00
2019-04-14T09:55:12.831Z,33.10
2019-04-14T09:57:52.403Z,33.10
2019-04-14T10:00:21.931Z,33.20
2019-04-14T10:02:51.898Z,32.60
2019-04-14T10:05:26.613Z,32.80
2019-04-14T10:08:02.838Z,32.50
2019-04-14T10:10:39.905Z,32.40
2019-04-14T10:13:06.117Z,32.50
2019-04-14T10:15:32.120Z,32.40
2019-04-14T10:18:01.658Z,32.50
2019-04-14T10:20:28.033Z,31.30
2019-04-14T10:22:54.047Z,31.30
2019-04-14T10:25:20.071Z,33.10
2019-04-14T10:27:46.183Z,33.90
2019-04-14T10:30:12.195Z,33.30
2019-04-14T10:32:38.244Z,33.90
2019-04-14T10:35:04.724Z,34.40
2019-04-14T10:37:30.756Z,35.50
2019-04-14T10:39:56.788Z,36.30
2019-04-14T10:42:22.862Z,36.00
2019-04-14T10:44:48.908Z,36.40
2019-04-14T10:47:15.008Z,34.10
2019-04-14T10:49:41.119Z,34.30
2019-04-14T10:52:07.261Z,32.60
2019-04-14T10:54:33.285Z,32.20
2019-04-14T10:57:07.350Z,30.60
2019-04-14T10:59:33.410Z,29.90
2019-04-14T11:01:59.462Z,30.50
2019-04-14T11:04:28.144Z,32.00
2019-04-14T11:06:56.126Z,32.30
2019-04-14T11:09:25.225Z,33.30
2019-04-14T11:11:51.302Z,33.80
2019-04-14T11:14:21.988Z,34.20
2019-04-14T11:16:48.070Z,34.20
2019-04-14T11:19:16.089Z,33.90
2019-04-14T11:21:43.110Z,33.70
2019-04-14T11:24:09.255Z,34.10
2019-04-14T11:26:36.984Z,33.70
2019-04-14T11:32:10.173Z,34.80
2019-04-14T11:34:42.811Z,35.50
2019-04-14T11:37:16.327Z,35.70
2019-04-14T11:39:44.315Z,37.40
2019-04-14T11:42:10.345Z,38.90
2019-04-14T11:44:36.496Z,37.30
2019-04-14T11:47:03.024Z,36.70
2019-04-14T11:49:29.049Z,35.80
2019-04-14T11:51:55.848Z,35.00
2019-04-14T11:54:22.485Z,34.70
2019-04-14T11:56:48.856Z,35.60
2019-04-14T11:59:14.919Z,35.60
2019-04-14T12:01:48.720Z,36.70
2019-04-14T12:04:22.215Z,36.80
2019-04-14T12:06:59.013Z,36.80
2019-04-14T12:09:29.752Z,37.90
2019-04-14T12:11:55.861Z,37.60
2019-04-14T12:14:21.947Z,38.20
2019-04-14T12:16:48.290Z,38.10
2019-04-14T12:19:14.335Z,39.00
2019-04-14T12:21:40.631Z,38.60
2019-04-14T12:24:06.975Z,38.00
2019-04-14T12:26:32.983Z,37.50
2019-04-14T12:29:01.607Z,37.40
2019-04-14T12:31:27.015Z,37.60
2019-04-14T12:33:53.054Z,37.80
2019-04-14T12:36:19.677Z,37.50
2019-04-14T12:38:46.143Z,37.10
2019-04-14T12:41:15.382Z,36.90
2019-04-14T12:43:55.751Z,37.30
2019-04-14T12:46:32.295Z,37.40
2019-04-14T12:49:03.093Z,36.90
2019-04-14T12:51:47.663Z,37.50
2019-04-14T12:54:14.058Z,36.70
2019-04-14T12:56:40.167Z,36.80
2019-04-14T12:59:16.300Z,36.90
2019-04-14T13:01:59.168Z,36.90
2019-04-14T13:04:25.178Z,37.30
2019-04-14T13:06:51.202Z,38.60
2019-04-14T13:09:24.522Z,38.90
2019-04-14T13:11:50.588Z,39.70
2019-04-14T13:14:16.609Z,38.90
2019-04-14T13:16:42.646Z,39.00
2019-04-14T13:19:08.997Z,38.80
2019-04-14T13:21:35.114Z,39.10
2019-04-14T13:24:01.490Z,39.20
2019-04-14T13:26:27.511Z,39.00
2019-04-14T13:28:53.541Z,37.60
2019-04-14T13:31:19.880Z,37.90
2019-04-14T13:33:45.903Z,37.60
2019-04-14T13:36:11.907Z,37.60
2019-04-14T13:38:37.963Z,38.10
2019-04-14T13:41:03.984Z,38.10
2019-04-14T13:43:34.847Z,37.90
2019-04-14T13:46:01.329Z,38.80
2019-04-14T13:48:27.416Z,38.50
2019-04-14T13:50:53.419Z,38.30
2019-04-14T13:53:19.475Z,38.80
2019-04-14T13:55:45.483Z,40.50
2019-04-14T13:58:11.505Z,40.80
2019-04-14T14:00:43.512Z,40.90
2019-04-14T14:03:17.256Z,41.70
2019-04-14T14:05:43.745Z,40.70
2019-04-14T14:08:10.312Z,40.60
2019-04-14T14:10:36.425Z,39.80
2019-04-14T14:13:16.392Z,40.20
2019-04-14T14:16:00.938Z,40.00
2019-04-14T14:18:45.693Z,40.20
2019-04-14T14:21:16.398Z,41.50
2019-04-14T14:24:01.075Z,42.20
2019-04-14T14:26:29.407Z,42.20
2019-04-14T14:28:55.460Z,42.00
2019-04-14T14:31:22.000Z,42.10
2019-04-14T14:33:48.022Z,40.00
2019-04-14T14:36:14.027Z,40.00
2019-04-14T14:38:42.963Z,40.40
2019-04-14T14:41:13.283Z,40.50
2019-04-14T14:43:39.317Z,39.90
2019-04-14T14:46:10.262Z,39.90
2019-04-14T14:48:38.171Z,39.40
2019-04-14T14:51:18.099Z,39.50
2019-04-14T14:53:44.115Z,39.80
2019-04-14T14:56:10.159Z,40.00
2019-04-14T14:58:36.613Z,40.50
2019-04-14T15:01:04.360Z,40.30
2019-04-14T15:03:30.369Z,39.60
2019-04-14T15:05:56.424Z,39.20
2019-04-14T15:08:22.459Z,39.40
2019-04-14T15:10:48.853Z,38.70
2019-04-14T15:13:14.900Z,38.90
2019-04-14T15:15:40.926Z,38.70
2019-04-14T15:18:06.943Z,39.20
2019-04-14T15:20:33.800Z,38.70
2019-04-14T15:23:00.102Z,39.20
2019-04-14T15:25:26.115Z,39.10
2019-04-14T15:27:52.755Z,39.60
2019-04-14T15:30:20.666Z,39.80
2019-04-14T15:32:46.965Z,40.40
2019-04-14T15:35:12.988Z,41.00
2019-04-14T15:37:38.999Z,40.60
2019-04-14T15:40:05.328Z,40.70
2019-04-14T15:42:31.395Z,40.50
2019-04-14T15:44:57.441Z,40.40
2019-04-14T15:47:30.264Z,40.70
2019-04-14T15:49:59.999Z,42.20
2019-04-14T15:52:28.770Z,42.10
2019-04-14T15:55:05.397Z,42.30
2019-04-14T15:57:51.799Z,42.20
2019-04-14T16:00:30.635Z,41.20
2019-04-14T16:03:14.974Z,40.80
2019-04-14T16:05:48.823Z,40.60
2019-04-14T16:08:21.503Z,40.30
2019-04-14T16:11:08.615Z,40.20
2019-04-14T16:13:48.786Z,41.10
2019-04-14T16:19:42.231Z,40.40
2019-04-14T16:22:18.528Z,39.80
2019-04-14T16:24:41.963Z,39.70
2019-04-14T16:27:32.725Z,39.70
2019-04-14T16:30:15.480Z,39.70
2019-04-14T16:33:11.343Z,39.40
2019-04-14T16:35:38.788Z,41.00
2019-04-14T16:38:04.820Z,40.70
2019-04-14T16:40:30.867Z,40.00
2019-04-14T16:42:56.902Z,40.00
2019-04-14T16:45:22.972Z,39.90
2019-04-14T16:47:49.007Z,40.30
2019-04-14T16:50:15.339Z,40.20
2019-04-14T16:52:43.264Z,40.90
2019-04-14T16:55:17.403Z,40.80
2019-04-14T16:58:01.962Z,39.80
2019-04-14T17:00:41.991Z,39.70
2019-04-14T17:03:08.063Z,39.50
2019-04-14T17:05:35.063Z,39.60
2019-04-14T17:08:03.201Z,39.90
2019-04-14T17:10:29.218Z,40.00
2019-04-14T17:12:55.299Z,41.90
2019-04-14T17:15:37.045Z,40.70
2019-04-14T17:18:19.927Z,40.60
2019-04-14T17:20:51.995Z,40.60
2019-04-14T17:23:36.714Z,40.10
2019-04-14T17:26:14.914Z,40.00
2019-04-14T17:29:01.672Z,40.30
2019-04-14T17:31:32.999Z,40.30
2019-04-14T17:34:06.486Z,40.60
2019-04-14T17:36:41.533Z,40.70
2019-04-14T17:39:09.477Z,40.70
2019-04-14T17:41:58.018Z,40.80
2019-04-14T17:44:42.512Z,40.70
2019-04-14T17:47:25.799Z,40.80
2019-04-14T17:49:53.781Z,41.30
2019-04-14T17:52:36.947Z,41.20
2019-04-14T17:55:07.075Z,41.80
2019-04-14T17:57:52.504Z,41.30
2019-04-14T18:00:43.111Z,41.60
2019-04-14T18:03:13.892Z,41.80
2019-04-14T18:05:57.057Z,42.30
2019-04-14T18:08:27.579Z,42.50
2019-04-14T18:10:58.027Z,42.70
2019-04-14T18:13:28.577Z,43.00
2019-04-14T18:16:02.726Z,42.80
2019-04-14T18:18:45.130Z,43.00
2019-04-14T18:21:11.249Z,43.20
2019-04-14T18:23:37.305Z,43.20
2019-04-14T18:26:03.395Z,43.80
2019-04-14T18:28:49.752Z,43.40
2019-04-14T18:31:26.515Z,43.60
2019-04-14T18:33:55.360Z,43.80
2019-04-14T18:36:29.131Z,44.30
2019-04-14T18:39:08.987Z,44.50
2019-04-14T18:41:39.680Z,44.00
2019-04-14T18:44:10.593Z,43.90
2019-04-14T18:46:47.421Z,43.80
2019-04-14T18:49:30.451Z,43.80
2019-04-14T18:52:12.806Z,43.70
2019-04-14T18:54:54.003Z,43.90
2019-04-14T18:57:16.752Z,43.70
2019-04-14T18:59:47.983Z,43.90
2019-04-14T19:02:14.339Z,44.10
2019-04-14T19:04:40.421Z,43.70
2019-04-14T19:07:06.430Z,43.20
2019-04-14T19:09:32.464Z,43.40
2019-04-14T19:12:00.516Z,43.20
2019-04-14T19:14:28.516Z,43.00
2019-04-14T19:16:56.510Z,43.10
2019-04-14T19:19:27.747Z,43.10
2019-04-14T19:21:53.755Z,42.90
2019-04-14T19:24:19.785Z,42.70
2019-04-14T19:26:46.425Z,42.60
2019-04-14T19:29:12.442Z,42.50
2019-04-14T19:31:38.531Z,42.50
2019-04-14T19:34:04.882Z,42.10
2019-04-14T19:36:31.503Z,42.00
2019-04-14T19:39:03.599Z,42.00
2019-04-14T19:41:29.783Z,41.40
2019-04-14T19:43:55.833Z,41.60
2019-04-14T19:46:32.030Z,41.60
2019-04-14T19:49:03.326Z,41.20
2019-04-14T19:51:35.619Z,41.20
2019-04-14T19:54:04.811Z,41.50
2019-04-14T19:56:40.073Z,41.30
2019-04-14T19:59:07.628Z,41.70
2019-04-14T20:01:37.670Z,41.40
2019-04-14T20:04:03.703Z,41.30
2019-04-14T20:06:29.746Z,41.20
2019-04-14T20:08:55.763Z,40.90
2019-04-14T20:11:21.831Z,40.20
2019-04-14T20:13:47.934Z,40.00
2019-04-14T20:16:32.572Z,40.40
2019-04-14T20:19:10.540Z,40.50
2019-04-14T20:21:53.219Z,40.00
2019-04-14T20:24:24.286Z,40.40
2019-04-14T20:27:07.037Z,39.80
2019-04-14T20:29:34.960Z,39.70
2019-04-14T20:32:02.877Z,39.90
2019-04-14T20:34:28.910Z,39.20
2019-04-14T20:36:55.291Z,38.90
2019-04-14T20:39:23.517Z,38.50
2019-04-14T20:41:49.548Z,39.00
2019-04-14T20:44:15.601Z,38.80
2019-04-14T20:46:41.915Z,38.50
2019-04-14T20:49:08.049Z,38.00
2019-04-14T20:51:34.334Z,38.00
2019-04-14T20:54:00.372Z,37.60
2019-04-14T20:56:26.379Z,37.20
2019-04-14T20:58:52.415Z,36.70
2019-04-14T21:01:19.244Z,36.30
2019-04-14T21:03:52.716Z,36.20
2019-04-14T21:06:29.971Z,35.40
2019-04-14T21:08:58.143Z,35.40
2019-04-14T21:11:34.895Z,35.30
2019-04-14T21:14:14.905Z,34.30
2019-04-14T21:16:57.867Z,33.00
2019-04-14T21:19:25.809Z,33.90
2019-04-14T21:22:04.793Z,32.90
2019-04-14T21:24:41.678Z,32.80
2019-04-14T21:27:24.754Z,32.10
2019-04-14T21:29:58.267Z,30.40
2019-04-14T21:32:26.186Z,30.50
2019-04-14T21:35:00.092Z,30.80
2019-04-14T21:37:29.285Z,30.60
2019-04-14T21:40:09.858Z,29.90
2019-04-14T21:42:36.079Z,29.90
2019-04-14T21:45:03.783Z,29.80
2019-04-14T21:47:44.819Z,29.80
2019-04-14T21:50:10.829Z,30.20
2019-04-14T21:52:44.559Z,30.00
2019-04-14T21:55:10.583Z,29.80
2019-04-14T21:57:44.143Z,30.00
2019-04-14T22:00:30.260Z,29.90
2019-04-14T22:02:58.321Z,29.80
2019-04-14T22:05:28.884Z,30.60
2019-04-14T22:08:03.193Z,29.70
2019-04-14T22:10:39.109Z,29.70
2019-04-14T22:13:05.367Z,29.60
2019-04-14T22:15:31.380Z,29.90
2019-04-14T22:17:57.647Z,29.80
2019-04-14T22:20:23.735Z,29.80
2019-04-14T22:22:49.848Z,30.00
2019-04-14T22:25:15.887Z,29.70
2019-04-14T22:27:41.911Z,29.70
2019-04-14T22:30:08.232Z,29.70
2019-04-14T22:32:34.266Z,29.70
2019-04-14T22:35:22.196Z,30.00
2019-04-14T22:37:50.158Z,29.90
2019-04-14T22:40:16.227Z,30.60
2019-04-14T22:42:43.065Z,30.10
2019-04-14T22:45:09.100Z,30.30
2019-04-14T22:47:35.128Z,30.70
2019-04-14T22:50:01.464Z,31.20
2019-04-14T22:52:27.948Z,31.20
2019-04-14T22:54:54.273Z,31.30
2019-04-14T22:57:23.071Z,31.60
2019-04-14T22:59:49.086Z,31.60
2019-04-14T23:02:27.790Z,32.80
2019-04-14T23:04:58.387Z,32.20
2019-04-14T23:07:41.478Z,32.10
2019-04-14T23:10:09.407Z,32.70
2019-04-14T23:12:39.245Z,32.40
2019-04-14T23:15:15.868Z,32.20
2019-04-14T23:17:56.271Z,32.10
2019-04-14T23:20:39.127Z,32.10
2019-04-14T23:23:24.019Z,32.80
2019-04-14T23:25:50.055Z,32.00
2019-04-14T23:28:16.103Z,32.80
2019-04-14T23:30:42.209Z,32.30
2019-04-14T23:33:08.796Z,32.60
2019-04-14T23:35:34.862Z,32.20
2019-04-14T23:38:00.875Z,33.20
2019-04-14T23:40:27.071Z,31.60
2019-04-14T23:42:53.678Z,31.80
2019-04-14T23:45:19.730Z,32.00
2019-04-14T23:47:45.777Z,31.90
2019-04-14T23:50:11.796Z,32.20
2019-04-14T23:52:37.839Z,31.70
2019-04-14T23:55:06.888Z,31.90
2019-04-14T23:57:33.036Z,32.00
